sensor_id;sensor_type;location;lat;lon;timestamp;temperature;humidity
13354;DHT22;6746;50.892;4.064;2023-05-09T00:02:21;14.40;99.90
13354;DHT22;6746;50.892;4.064;2023-05-09T00:04:59;14.40;99.90
13354;DHT22;6746;50.892;4.064;2023-05-09T00:07:37;14.40;99.90
13354;DHT22;6746;50.892;4.064;2023-05-09T00:10:16;14.40;99.90
13354;DHT22;6746;50.892;4.064;2023-05-09T00:12:54;14.40;99.90
13354;DHT22;6746;50.892;4.064;2023-05-09T00:15:32;14.40;99.90
13354;DHT22;6746;50.892;4.064;2023-05-09T00:18:10;14.40;99.90
13354;DHT22;6746;50.892;4.064;2023-05-09T00:20:49;14.30;99.90
13354;DHT22;6746;50.892;4.064;2023-05-09T00:23:26;14.30;99.90
13354;DHT22;6746;50.892;4.064;2023-05-09T00:26:12;14.30;99.90
13354;DHT22;6746;50.892;4.064;2023-05-09T00:28:50;14.30;99.90
13354;DHT22;6746;50.892;4.064;2023-05-09T00:31:38;14.30;99.90
13354;DHT22;6746;50.892;4.064;2023-05-09T00:34:25;14.20;99.90
13354;DHT22;6746;50.892;4.064;2023-05-09T00:37:14;14.30;99.90
13354;DHT22;6746;50.892;4.064;2023-05-09T00:40:02;14.20;99.90
13354;DHT22;6746;50.892;4.064;2023-05-09T00:42:50;14.20;99.90
13354;DHT22;6746;50.892;4.064;2023-05-09T00:45:28;14.20;99.90
13354;DHT22;6746;50.892;4.064;2023-05-09T00:48:08;14.20;99.90
13354;DHT22;6746;50.892;4.064;2023-05-09T00:50:46;14.20;99.90
13354;DHT22;6746;50.892;4.064;2023-05-09T00:53:24;14.20;99.90
13354;DHT22;6746;50.892;4.064;2023-05-09T00:56:03;14.20;99.90
13354;DHT22;6746;50.892;4.064;2023-05-09T00:58:41;14.20;99.90
13354;DHT22;6746;50.892;4.064;2023-05-09T01:01:19;14.20;99.90
13354;DHT22;6746;50.892;4.064;2023-05-09T01:03:57;14.20;99.90
13354;DHT22;6746;50.892;4.064;2023-05-09T01:06:36;14.20;99.90
13354;DHT22;6746;50.892;4.064;2023-05-09T01:09:31;14.20;99.90
13354;DHT22;6746;50.892;4.064;2023-05-09T01:12:12;14.20;99.90
13354;DHT22;6746;50.892;4.064;2023-05-09T01:14:58;14.10;99.90
13354;DHT22;6746;50.892;4.064;2023-05-09T01:17:48;14.20;99.90
13354;DHT22;6746;50.892;4.064;2023-05-09T01:20:42;14.20;99.90
13354;DHT22;6746;50.892;4.064;2023-05-09T01:23:39;14.20;99.90
13354;DHT22;6746;50.892;4.064;2023-05-09T01:29:42;14.10;99.90
13354;DHT22;6746;50.892;4.064;2023-05-09T01:32:21;14.10;99.90
13354;DHT22;6746;50.892;4.064;2023-05-09T01:34:58;14.10;99.90
13354;DHT22;6746;50.892;4.064;2023-05-09T01:37:40;14.10;99.90
13354;DHT22;6746;50.892;4.064;2023-05-09T01:40:17;14.10;99.90
13354;DHT22;6746;50.892;4.064;2023-05-09T01:43:06;14.10;99.90
13354;DHT22;6746;50.892;4.064;2023-05-09T01:45:51;14.00;99.90
13354;DHT22;6746;50.892;4.064;2023-05-09T01:48:29;14.00;99.90
13354;DHT22;6746;50.892;4.064;2023-05-09T01:51:07;14.00;99.90
13354;DHT22;6746;50.892;4.064;2023-05-09T01:53:46;14.00;99.90
13354;DHT22;6746;50.892;4.064;2023-05-09T01:56:23;14.00;99.90
13354;DHT22;6746;50.892;4.064;2023-05-09T01:59:01;13.90;99.90
13354;DHT22;6746;50.892;4.064;2023-05-09T02:01:40;13.90;99.90
13354;DHT22;6746;50.892;4.064;2023-05-09T02:04:18;13.90;99.90
13354;DHT22;6746;50.892;4.064;2023-05-09T02:06:59;13.90;99.90
13354;DHT22;6746;50.892;4.064;2023-05-09T02:09:37;13.90;99.90
13354;DHT22;6746;50.892;4.064;2023-05-09T02:12:24;13.90;99.90
13354;DHT22;6746;50.892;4.064;2023-05-09T02:15:12;13.90;99.90
13354;DHT22;6746;50.892;4.064;2023-05-09T02:18:00;13.90;99.90
13354;DHT22;6746;50.892;4.064;2023-05-09T02:20:48;13.90;99.90
13354;DHT22;6746;50.892;4.064;2023-05-09T02:23:36;13.90;99.90
13354;DHT22;6746;50.892;4.064;2023-05-09T02:26:24;13.80;99.90
13354;DHT22;6746;50.892;4.064;2023-05-09T02:29:14;13.90;99.90
13354;DHT22;6746;50.892;4.064;2023-05-09T02:32:01;13.90;99.90
13354;DHT22;6746;50.892;4.064;2023-05-09T02:34:49;13.90;99.90
13354;DHT22;6746;50.892;4.064;2023-05-09T02:37:37;13.90;99.90
13354;DHT22;6746;50.892;4.064;2023-05-09T02:40:25;13.90;99.90
13354;DHT22;6746;50.892;4.064;2023-05-09T02:43:04;13.90;99.90
13354;DHT22;6746;50.892;4.064;2023-05-09T02:45:42;13.90;99.90
13354;DHT22;6746;50.892;4.064;2023-05-09T02:48:20;13.90;99.90
13354;DHT22;6746;50.892;4.064;2023-05-09T02:50:58;13.90;99.90
13354;DHT22;6746;50.892;4.064;2023-05-09T02:53:46;14.00;99.90
13354;DHT22;6746;50.892;4.064;2023-05-09T02:56:32;14.00;99.90
13354;DHT22;6746;50.892;4.064;2023-05-09T02:59:11;14.00;99.90
13354;DHT22;6746;50.892;4.064;2023-05-09T03:01:49;14.00;99.90
13354;DHT22;6746;50.892;4.064;2023-05-09T03:04:27;14.00;99.90
13354;DHT22;6746;50.892;4.064;2023-05-09T03:07:05;14.00;99.90
13354;DHT22;6746;50.892;4.064;2023-05-09T03:09:43;14.00;99.90
13354;DHT22;6746;50.892;4.064;2023-05-09T03:12:26;14.00;99.90
13354;DHT22;6746;50.892;4.064;2023-05-09T03:15:05;14.00;99.90
13354;DHT22;6746;50.892;4.064;2023-05-09T03:17:52;14.00;99.90
13354;DHT22;6746;50.892;4.064;2023-05-09T03:20:40;14.00;99.90
13354;DHT22;6746;50.892;4.064;2023-05-09T03:23:28;14.00;99.90
13354;DHT22;6746;50.892;4.064;2023-05-09T03:26:16;14.00;99.90
13354;DHT22;6746;50.892;4.064;2023-05-09T03:29:04;14.00;99.90
13354;DHT22;6746;50.892;4.064;2023-05-09T03:31:52;14.00;99.90
13354;DHT22;6746;50.892;4.064;2023-05-09T03:34:40;14.00;99.90
13354;DHT22;6746;50.892;4.064;2023-05-09T03:37:28;14.00;99.90
13354;DHT22;6746;50.892;4.064;2023-05-09T03:40:16;14.00;99.90
13354;DHT22;6746;50.892;4.064;2023-05-09T03:43:04;14.00;99.90
13354;DHT22;6746;50.892;4.064;2023-05-09T03:45:52;14.00;99.90
13354;DHT22;6746;50.892;4.064;2023-05-09T03:48:40;14.00;99.90
13354;DHT22;6746;50.892;4.064;2023-05-09T03:51:29;14.00;99.90
13354;DHT22;6746;50.892;4.064;2023-05-09T03:54:15;14.00;99.90
13354;DHT22;6746;50.892;4.064;2023-05-09T03:56:53;14.00;99.90
13354;DHT22;6746;50.892;4.064;2023-05-09T03:59:34;14.00;99.90
13354;DHT22;6746;50.892;4.064;2023-05-09T04:02:12;14.00;99.90
13354;DHT22;6746;50.892;4.064;2023-05-09T04:04:53;14.10;99.90
13354;DHT22;6746;50.892;4.064;2023-05-09T04:07:31;14.00;99.90
13354;DHT22;6746;50.892;4.064;2023-05-09T04:10:17;14.00;99.90
13354;DHT22;6746;50.892;4.064;2023-05-09T04:12:55;14.00;99.90
13354;DHT22;6746;50.892;4.064;2023-05-09T04:15:33;14.10;99.90
13354;DHT22;6746;50.892;4.064;2023-05-09T04:18:11;14.10;99.90
13354;DHT22;6746;50.892;4.064;2023-05-09T04:20:50;14.20;99.90
13354;DHT22;6746;50.892;4.064;2023-05-09T04:23:28;14.10;99.90
13354;DHT22;6746;50.892;4.064;2023-05-09T04:25:57;14.20;99.90
13354;DHT22;6746;50.892;4.064;2023-05-09T04:28:27;14.20;99.90
13354;DHT22;6746;50.892;4.064;2023-05-09T04:31:05;14.20;99.90
13354;DHT22;6746;50.892;4.064;2023-05-09T04:33:43;14.20;99.90
13354;DHT22;6746;50.892;4.064;2023-05-09T04:36:14;14.20;99.90
13354;DHT22;6746;50.892;4.064;2023-05-09T04:38:43;14.20;99.90
13354;DHT22;6746;50.892;4.064;2023-05-09T04:41:21;14.20;99.90
13354;DHT22;6746;50.892;4.064;2023-05-09T04:43:55;14.20;99.90
13354;DHT22;6746;50.892;4.064;2023-05-09T04:46:23;14.10;99.90
13354;DHT22;6746;50.892;4.064;2023-05-09T04:48:56;14.10;99.90
13354;DHT22;6746;50.892;4.064;2023-05-09T04:51:25;14.20;99.90
13354;DHT22;6746;50.892;4.064;2023-05-09T04:53:57;14.10;99.90
13354;DHT22;6746;50.892;4.064;2023-05-09T04:56:26;14.10;99.90
13354;DHT22;6746;50.892;4.064;2023-05-09T04:58:54;14.10;99.90
13354;DHT22;6746;50.892;4.064;2023-05-09T05:01:23;14.10;99.90
13354;DHT22;6746;50.892;4.064;2023-05-09T05:03:56;14.20;99.90
13354;DHT22;6746;50.892;4.064;2023-05-09T05:06:25;14.20;99.90
13354;DHT22;6746;50.892;4.064;2023-05-09T05:08:54;14.10;99.90
13354;DHT22;6746;50.892;4.064;2023-05-09T05:11:22;14.10;99.90
13354;DHT22;6746;50.892;4.064;2023-05-09T05:13:56;14.10;99.90
13354;DHT22;6746;50.892;4.064;2023-05-09T05:16:25;14.20;99.90
13354;DHT22;6746;50.892;4.064;2023-05-09T05:19:13;14.20;99.90
13354;DHT22;6746;50.892;4.064;2023-05-09T05:21:51;14.10;99.90
13354;DHT22;6746;50.892;4.064;2023-05-09T05:24:32;14.10;99.90
13354;DHT22;6746;50.892;4.064;2023-05-09T05:27:10;14.10;99.90
13354;DHT22;6746;50.892;4.064;2023-05-09T05:29:41;14.10;99.90
13354;DHT22;6746;50.892;4.064;2023-05-09T05:32:10;14.10;99.90
13354;DHT22;6746;50.892;4.064;2023-05-09T05:34:41;14.20;99.90
13354;DHT22;6746;50.892;4.064;2023-05-09T05:37:10;14.20;99.90
13354;DHT22;6746;50.892;4.064;2023-05-09T05:39:47;14.20;99.90
13354;DHT22;6746;50.892;4.064;2023-05-09T05:42:15;14.20;99.90
13354;DHT22;6746;50.892;4.064;2023-05-09T05:44:57;14.20;99.90
13354;DHT22;6746;50.892;4.064;2023-05-09T05:47:25;14.20;99.90
13354;DHT22;6746;50.892;4.064;2023-05-09T05:49:54;14.20;99.90
13354;DHT22;6746;50.892;4.064;2023-05-09T05:52:26;14.20;99.90
13354;DHT22;6746;50.892;4.064;2023-05-09T05:54:55;14.30;99.90
13354;DHT22;6746;50.892;4.064;2023-05-09T05:57:33;14.30;99.90
13354;DHT22;6746;50.892;4.064;2023-05-09T06:00:05;14.40;99.90
13354;DHT22;6746;50.892;4.064;2023-05-09T06:02:33;14.40;99.90
13354;DHT22;6746;50.892;4.064;2023-05-09T06:05:09;14.40;99.90
13354;DHT22;6746;50.892;4.064;2023-05-09T06:07:38;14.40;99.90
13354;DHT22;6746;50.892;4.064;2023-05-09T06:10:12;14.50;99.90
13354;DHT22;6746;50.892;4.064;2023-05-09T06:12:40;14.50;99.90
13354;DHT22;6746;50.892;4.064;2023-05-09T06:15:09;14.50;99.90
13354;DHT22;6746;50.892;4.064;2023-05-09T06:17:38;14.50;99.90
13354;DHT22;6746;50.892;4.064;2023-05-09T06:20:10;14.50;99.90
13354;DHT22;6746;50.892;4.064;2023-05-09T06:22:39;14.60;99.90
13354;DHT22;6746;50.892;4.064;2023-05-09T06:25:10;14.50;99.90
13354;DHT22;6746;50.892;4.064;2023-05-09T06:27:39;14.60;99.90
13354;DHT22;6746;50.892;4.064;2023-05-09T06:30:11;14.60;99.90
13354;DHT22;6746;50.892;4.064;2023-05-09T06:32:40;14.60;99.90
13354;DHT22;6746;50.892;4.064;2023-05-09T06:35:09;14.60;99.90
13354;DHT22;6746;50.892;4.064;2023-05-09T06:37:38;14.60;99.90
13354;DHT22;6746;50.892;4.064;2023-05-09T06:40:07;14.70;99.90
13354;DHT22;6746;50.892;4.064;2023-05-09T06:42:38;14.70;99.90
13354;DHT22;6746;50.892;4.064;2023-05-09T06:45:10;14.80;99.90
13354;DHT22;6746;50.892;4.064;2023-05-09T06:47:39;14.80;99.90
13354;DHT22;6746;50.892;4.064;2023-05-09T06:50:08;14.80;99.90
13354;DHT22;6746;50.892;4.064;2023-05-09T06:52:37;14.80;99.90
13354;DHT22;6746;50.892;4.064;2023-05-09T06:55:09;14.80;99.90
13354;DHT22;6746;50.892;4.064;2023-05-09T06:57:38;14.80;99.90
13354;DHT22;6746;50.892;4.064;2023-05-09T07:00:16;14.90;99.90
13354;DHT22;6746;50.892;4.064;2023-05-09T07:02:45;14.80;99.90
13354;DHT22;6746;50.892;4.064;2023-05-09T07:05:16;14.90;99.90
13354;DHT22;6746;50.892;4.064;2023-05-09T07:10:35;14.90;99.90
13354;DHT22;6746;50.892;4.064;2023-05-09T07:13:03;14.90;99.90
13354;DHT22;6746;50.892;4.064;2023-05-09T07:15:32;15.00;99.90
13354;DHT22;6746;50.892;4.064;2023-05-09T07:18:01;14.90;99.90
13354;DHT22;6746;50.892;4.064;2023-05-09T07:20:29;14.90;99.90
13354;DHT22;6746;50.892;4.064;2023-05-09T07:22:58;14.90;99.90
13354;DHT22;6746;50.892;4.064;2023-05-09T07:25:27;14.90;99.90
13354;DHT22;6746;50.892;4.064;2023-05-09T07:27:56;14.90;99.90
13354;DHT22;6746;50.892;4.064;2023-05-09T07:30:25;15.00;99.90
13354;DHT22;6746;50.892;4.064;2023-05-09T07:32:56;15.00;99.90
13354;DHT22;6746;50.892;4.064;2023-05-09T07:35:25;15.00;99.90
13354;DHT22;6746;50.892;4.064;2023-05-09T07:38:04;15.10;99.90
13354;DHT22;6746;50.892;4.064;2023-05-09T07:40:33;15.10;99.90
13354;DHT22;6746;50.892;4.064;2023-05-09T07:43:01;15.10;99.90
13354;DHT22;6746;50.892;4.064;2023-05-09T07:45:30;15.20;99.90
13354;DHT22;6746;50.892;4.064;2023-05-09T07:47:59;15.20;99.90
13354;DHT22;6746;50.892;4.064;2023-05-09T07:50:27;15.30;99.90
13354;DHT22;6746;50.892;4.064;2023-05-09T07:53:06;15.30;99.90
13354;DHT22;6746;50.892;4.064;2023-05-09T07:55:51;15.40;99.90
13354;DHT22;6746;50.892;4.064;2023-05-09T07:58:20;15.40;99.90
13354;DHT22;6746;50.892;4.064;2023-05-09T08:00:49;15.40;99.90
13354;DHT22;6746;50.892;4.064;2023-05-09T08:03:27;15.50;99.90
13354;DHT22;6746;50.892;4.064;2023-05-09T08:05:58;15.60;99.90
13354;DHT22;6746;50.892;4.064;2023-05-09T08:08:27;15.50;99.90
13354;DHT22;6746;50.892;4.064;2023-05-09T08:11:06;15.50;99.90
13354;DHT22;6746;50.892;4.064;2023-05-09T08:13:34;15.50;99.90
13354;DHT22;6746;50.892;4.064;2023-05-09T08:16:03;15.50;99.90
13354;DHT22;6746;50.892;4.064;2023-05-09T08:18:31;15.50;99.90
13354;DHT22;6746;50.892;4.064;2023-05-09T08:21:00;15.50;99.90
13354;DHT22;6746;50.892;4.064;2023-05-09T08:23:29;15.60;99.90
13354;DHT22;6746;50.892;4.064;2023-05-09T08:25:58;15.60;99.90
13354;DHT22;6746;50.892;4.064;2023-05-09T08:28:36;15.60;99.90
13354;DHT22;6746;50.892;4.064;2023-05-09T08:31:05;15.60;99.90
13354;DHT22;6746;50.892;4.064;2023-05-09T08:33:34;15.50;99.90
13354;DHT22;6746;50.892;4.064;2023-05-09T08:36:02;15.50;99.90
13354;DHT22;6746;50.892;4.064;2023-05-09T08:38:31;15.50;99.90
13354;DHT22;6746;50.892;4.064;2023-05-09T08:41:00;15.50;99.90
13354;DHT22;6746;50.892;4.064;2023-05-09T08:43:29;15.50;99.90
13354;DHT22;6746;50.892;4.064;2023-05-09T08:46:05;15.50;99.90
13354;DHT22;6746;50.892;4.064;2023-05-09T08:48:32;15.40;99.90
13354;DHT22;6746;50.892;4.064;2023-05-09T08:51:00;15.40;99.90
13354;DHT22;6746;50.892;4.064;2023-05-09T08:53:29;15.40;99.90
13354;DHT22;6746;50.892;4.064;2023-05-09T08:56:03;15.40;99.90
13354;DHT22;6746;50.892;4.064;2023-05-09T08:58:32;15.40;99.90
13354;DHT22;6746;50.892;4.064;2023-05-09T09:01:01;15.30;99.90
13354;DHT22;6746;50.892;4.064;2023-05-09T09:03:29;15.30;99.90
13354;DHT22;6746;50.892;4.064;2023-05-09T09:06:06;15.30;99.90
13354;DHT22;6746;50.892;4.064;2023-05-09T09:08:35;15.30;99.90
13354;DHT22;6746;50.892;4.064;2023-05-09T09:11:03;15.30;99.90
13354;DHT22;6746;50.892;4.064;2023-05-09T09:13:33;15.30;99.90
13354;DHT22;6746;50.892;4.064;2023-05-09T09:16:01;15.20;99.90
13354;DHT22;6746;50.892;4.064;2023-05-09T09:18:30;15.30;99.90
13354;DHT22;6746;50.892;4.064;2023-05-09T09:21:00;15.20;99.90
13354;DHT22;6746;50.892;4.064;2023-05-09T09:23:27;15.30;99.90
13354;DHT22;6746;50.892;4.064;2023-05-09T09:26:02;15.20;99.90
13354;DHT22;6746;50.892;4.064;2023-05-09T09:28:33;15.30;99.90
13354;DHT22;6746;50.892;4.064;2023-05-09T09:31:02;15.20;99.90
13354;DHT22;6746;50.892;4.064;2023-05-09T09:33:31;15.20;99.90
13354;DHT22;6746;50.892;4.064;2023-05-09T09:36:00;15.10;99.90
13354;DHT22;6746;50.892;4.064;2023-05-09T09:38:28;15.10;99.90
13354;DHT22;6746;50.892;4.064;2023-05-09T09:41:07;15.00;99.90
13354;DHT22;6746;50.892;4.064;2023-05-09T09:43:38;15.00;99.90
13354;DHT22;6746;50.892;4.064;2023-05-09T09:46:07;15.00;99.90
13354;DHT22;6746;50.892;4.064;2023-05-09T09:48:36;15.10;99.90
13354;DHT22;6746;50.892;4.064;2023-05-09T09:51:10;15.10;99.90
13354;DHT22;6746;50.892;4.064;2023-05-09T09:53:42;15.20;99.90
13354;DHT22;6746;50.892;4.064;2023-05-09T09:56:10;15.20;99.90
13354;DHT22;6746;50.892;4.064;2023-05-09T09:58:39;15.10;99.90
13354;DHT22;6746;50.892;4.064;2023-05-09T10:01:11;15.00;99.90
13354;DHT22;6746;50.892;4.064;2023-05-09T10:03:42;15.00;99.90
13354;DHT22;6746;50.892;4.064;2023-05-09T10:06:11;14.80;99.90
13354;DHT22;6746;50.892;4.064;2023-05-09T10:08:40;14.70;99.90
13354;DHT22;6746;50.892;4.064;2023-05-09T10:11:08;14.70;99.90
13354;DHT22;6746;50.892;4.064;2023-05-09T10:13:36;14.70;99.90
13354;DHT22;6746;50.892;4.064;2023-05-09T10:16:05;14.80;99.90
13354;DHT22;6746;50.892;4.064;2023-05-09T10:18:34;14.90;99.90
13354;DHT22;6746;50.892;4.064;2023-05-09T10:21:03;14.90;99.90
13354;DHT22;6746;50.892;4.064;2023-05-09T10:23:39;15.00;99.90
13354;DHT22;6746;50.892;4.064;2023-05-09T10:26:21;15.00;99.90
13354;DHT22;6746;50.892;4.064;2023-05-09T10:28:48;14.80;99.90
13354;DHT22;6746;50.892;4.064;2023-05-09T10:31:25;14.80;99.90
13354;DHT22;6746;50.892;4.064;2023-05-09T10:33:56;14.70;99.90
13354;DHT22;6746;50.892;4.064;2023-05-09T10:36:24;14.70;99.90
13354;DHT22;6746;50.892;4.064;2023-05-09T10:38:53;14.70;99.90
13354;DHT22;6746;50.892;4.064;2023-05-09T10:41:22;14.50;99.90
13354;DHT22;6746;50.892;4.064;2023-05-09T10:43:58;14.50;99.90
13354;DHT22;6746;50.892;4.064;2023-05-09T10:46:26;14.40;99.90
13354;DHT22;6746;50.892;4.064;2023-05-09T10:48:58;14.30;99.90
13354;DHT22;6746;50.892;4.064;2023-05-09T10:51:26;14.30;99.90
13354;DHT22;6746;50.892;4.064;2023-05-09T10:54:12;14.30;99.90
13354;DHT22;6746;50.892;4.064;2023-05-09T10:56:43;14.20;99.90
13354;DHT22;6746;50.892;4.064;2023-05-09T11:02:00;14.20;99.90
13354;DHT22;6746;50.892;4.064;2023-05-09T11:04:36;14.30;99.90
13354;DHT22;6746;50.892;4.064;2023-05-09T11:07:05;14.30;99.90
13354;DHT22;6746;50.892;4.064;2023-05-09T11:09:33;14.30;99.90
13354;DHT22;6746;50.892;4.064;2023-05-09T11:14:45;14.30;99.90
13354;DHT22;6746;50.892;4.064;2023-05-09T11:20:07;14.20;99.90
13354;DHT22;6746;50.892;4.064;2023-05-09T11:22:44;14.20;99.90
13354;DHT22;6746;50.892;4.064;2023-05-09T11:25:24;14.10;99.90
13354;DHT22;6746;50.892;4.064;2023-05-09T11:27:50;14.20;99.90
13354;DHT22;6746;50.892;4.064;2023-05-09T11:30:22;14.20;99.90
13354;DHT22;6746;50.892;4.064;2023-05-09T11:32:51;14.20;99.90
13354;DHT22;6746;50.892;4.064;2023-05-09T11:35:19;14.20;99.90
13354;DHT22;6746;50.892;4.064;2023-05-09T11:37:48;14.20;99.90
13354;DHT22;6746;50.892;4.064;2023-05-09T11:40:19;14.30;99.90
13354;DHT22;6746;50.892;4.064;2023-05-09T11:42:50;14.30;99.90
13354;DHT22;6746;50.892;4.064;2023-05-09T11:45:27;14.30;99.90
13354;DHT22;6746;50.892;4.064;2023-05-09T11:47:57;14.30;99.90
13354;DHT22;6746;50.892;4.064;2023-05-09T11:50:26;14.30;99.90
13354;DHT22;6746;50.892;4.064;2023-05-09T11:52:55;14.30;99.90
13354;DHT22;6746;50.892;4.064;2023-05-09T11:55:33;14.20;99.90
13354;DHT22;6746;50.892;4.064;2023-05-09T11:58:11;14.10;99.90
13354;DHT22;6746;50.892;4.064;2023-05-09T12:00:48;14.10;99.90
13354;DHT22;6746;50.892;4.064;2023-05-09T12:03:16;14.10;99.90
13354;DHT22;6746;50.892;4.064;2023-05-09T12:05:55;14.10;99.90
13354;DHT22;6746;50.892;4.064;2023-05-09T12:08:33;14.20;99.90
13354;DHT22;6746;50.892;4.064;2023-05-09T12:11:07;14.20;99.90
13354;DHT22;6746;50.892;4.064;2023-05-09T12:13:43;14.20;99.90
13354;DHT22;6746;50.892;4.064;2023-05-09T12:16:07;14.20;99.90
13354;DHT22;6746;50.892;4.064;2023-05-09T12:18:36;14.30;99.90
13354;DHT22;6746;50.892;4.064;2023-05-09T12:21:15;14.30;99.90
13354;DHT22;6746;50.892;4.064;2023-05-09T12:23:44;14.30;99.90
13354;DHT22;6746;50.892;4.064;2023-05-09T12:26:12;14.20;99.90
13354;DHT22;6746;50.892;4.064;2023-05-09T12:28:40;14.20;99.90
13354;DHT22;6746;50.892;4.064;2023-05-09T12:31:09;14.10;99.90
13354;DHT22;6746;50.892;4.064;2023-05-09T12:33:38;14.10;99.90
13354;DHT22;6746;50.892;4.064;2023-05-09T12:36:11;14.00;99.90
13354;DHT22;6746;50.892;4.064;2023-05-09T12:38:38;13.90;99.90
13354;DHT22;6746;50.892;4.064;2023-05-09T12:41:07;13.90;99.90
13354;DHT22;6746;50.892;4.064;2023-05-09T12:43:38;13.80;99.90
13354;DHT22;6746;50.892;4.064;2023-05-09T12:46:07;13.90;99.90
13354;DHT22;6746;50.892;4.064;2023-05-09T12:48:36;13.90;99.90
13354;DHT22;6746;50.892;4.064;2023-05-09T12:51:04;13.90;99.90
13354;DHT22;6746;50.892;4.064;2023-05-09T12:53:36;13.90;99.90
13354;DHT22;6746;50.892;4.064;2023-05-09T12:56:02;13.90;99.90
13354;DHT22;6746;50.892;4.064;2023-05-09T12:58:33;13.80;99.90
13354;DHT22;6746;50.892;4.064;2023-05-09T13:01:04;13.90;99.90
13354;DHT22;6746;50.892;4.064;2023-05-09T13:03:33;13.80;99.90
13354;DHT22;6746;50.892;4.064;2023-05-09T13:06:02;13.90;99.90
13354;DHT22;6746;50.892;4.064;2023-05-09T13:08:33;14.00;99.90
13354;DHT22;6746;50.892;4.064;2023-05-09T13:11:02;14.00;99.90
13354;DHT22;6746;50.892;4.064;2023-05-09T13:13:31;14.00;99.90
13354;DHT22;6746;50.892;4.064;2023-05-09T13:15:59;14.00;99.90
13354;DHT22;6746;50.892;4.064;2023-05-09T13:18:36;14.00;99.90
13354;DHT22;6746;50.892;4.064;2023-05-09T13:21:04;14.00;99.90
13354;DHT22;6746;50.892;4.064;2023-05-09T13:23:32;14.00;99.90
13354;DHT22;6746;50.892;4.064;2023-05-09T13:26:01;14.00;99.90
13354;DHT22;6746;50.892;4.064;2023-05-09T13:28:33;14.00;99.90
13354;DHT22;6746;50.892;4.064;2023-05-09T13:31:01;13.90;99.90
13354;DHT22;6746;50.892;4.064;2023-05-09T13:33:30;14.00;99.90
13354;DHT22;6746;50.892;4.064;2023-05-09T13:35:59;13.90;99.90
13354;DHT22;6746;50.892;4.064;2023-05-09T13:38:27;13.90;99.90
13354;DHT22;6746;50.892;4.064;2023-05-09T13:40:56;13.90;99.90
13354;DHT22;6746;50.892;4.064;2023-05-09T13:43:34;13.80;99.90
13354;DHT22;6746;50.892;4.064;2023-05-09T13:46:12;13.80;99.90
13354;DHT22;6746;50.892;4.064;2023-05-09T13:48:43;13.80;99.90
13354;DHT22;6746;50.892;4.064;2023-05-09T13:51:11;13.80;99.90
13354;DHT22;6746;50.892;4.064;2023-05-09T13:53:49;13.80;99.90
13354;DHT22;6746;50.892;4.064;2023-05-09T13:56:20;13.80;99.90
13354;DHT22;6746;50.892;4.064;2023-05-09T13:58:48;13.80;99.90
13354;DHT22;6746;50.892;4.064;2023-05-09T14:01:25;13.80;99.90
13354;DHT22;6746;50.892;4.064;2023-05-09T14:03:53;13.90;99.90
13354;DHT22;6746;50.892;4.064;2023-05-09T14:06:31;13.90;99.90
13354;DHT22;6746;50.892;4.064;2023-05-09T14:08:59;13.90;99.90
13354;DHT22;6746;50.892;4.064;2023-05-09T14:11:28;13.90;99.90
13354;DHT22;6746;50.892;4.064;2023-05-09T14:13:59;13.80;99.90
13354;DHT22;6746;50.892;4.064;2023-05-09T14:16:28;13.80;99.90
13354;DHT22;6746;50.892;4.064;2023-05-09T14:18:59;13.80;99.90
13354;DHT22;6746;50.892;4.064;2023-05-09T14:21:28;13.80;99.90
13354;DHT22;6746;50.892;4.064;2023-05-09T14:24:05;13.80;99.90
13354;DHT22;6746;50.892;4.064;2023-05-09T14:26:33;13.80;99.90
13354;DHT22;6746;50.892;4.064;2023-05-09T14:29:05;13.80;99.90
13354;DHT22;6746;50.892;4.064;2023-05-09T14:31:33;13.90;99.90
13354;DHT22;6746;50.892;4.064;2023-05-09T14:34:02;13.90;99.90
13354;DHT22;6746;50.892;4.064;2023-05-09T14:36:30;13.90;99.90
13354;DHT22;6746;50.892;4.064;2023-05-09T14:39:07;14.00;99.90
13354;DHT22;6746;50.892;4.064;2023-05-09T14:41:35;13.90;99.90
13354;DHT22;6746;50.892;4.064;2023-05-09T14:44:03;14.00;99.90
13354;DHT22;6746;50.892;4.064;2023-05-09T14:46:32;14.00;99.90
13354;DHT22;6746;50.892;4.064;2023-05-09T14:49:01;14.00;99.90
13354;DHT22;6746;50.892;4.064;2023-05-09T14:51:30;14.20;99.90
13354;DHT22;6746;50.892;4.064;2023-05-09T14:54:01;14.20;99.90
13354;DHT22;6746;50.892;4.064;2023-05-09T14:56:30;14.30;99.90
13354;DHT22;6746;50.892;4.064;2023-05-09T14:59:08;14.30;99.90
13354;DHT22;6746;50.892;4.064;2023-05-09T15:01:37;14.30;99.90
13354;DHT22;6746;50.892;4.064;2023-05-09T15:04:05;14.30;99.90
13354;DHT22;6746;50.892;4.064;2023-05-09T15:06:42;14.30;99.90
13354;DHT22;6746;50.892;4.064;2023-05-09T15:09:20;14.30;99.90
13354;DHT22;6746;50.892;4.064;2023-05-09T15:11:54;14.40;99.90
13354;DHT22;6746;50.892;4.064;2023-05-09T15:14:22;14.40;99.90
13354;DHT22;6746;50.892;4.064;2023-05-09T15:16:51;14.40;99.90
13354;DHT22;6746;50.892;4.064;2023-05-09T15:19:20;14.50;99.90
13354;DHT22;6746;50.892;4.064;2023-05-09T15:21:49;14.50;99.90
13354;DHT22;6746;50.892;4.064;2023-05-09T15:24:18;14.50;99.90
13354;DHT22;6746;50.892;4.064;2023-05-09T15:26:46;14.50;99.90
13354;DHT22;6746;50.892;4.064;2023-05-09T15:29:15;14.50;99.90
13354;DHT22;6746;50.892;4.064;2023-05-09T15:31:44;14.50;99.90
13354;DHT22;6746;50.892;4.064;2023-05-09T15:34:13;14.50;99.90
13354;DHT22;6746;50.892;4.064;2023-05-09T15:36:41;14.50;99.90
13354;DHT22;6746;50.892;4.064;2023-05-09T15:39:10;14.50;99.90
13354;DHT22;6746;50.892;4.064;2023-05-09T15:41:47;14.50;99.90
13354;DHT22;6746;50.892;4.064;2023-05-09T15:44:15;14.60;99.90
13354;DHT22;6746;50.892;4.064;2023-05-09T15:46:44;14.60;99.90
13354;DHT22;6746;50.892;4.064;2023-05-09T15:49:13;14.70;99.90
13354;DHT22;6746;50.892;4.064;2023-05-09T15:51:41;14.70;99.90
13354;DHT22;6746;50.892;4.064;2023-05-09T15:54:10;14.70;99.90
13354;DHT22;6746;50.892;4.064;2023-05-09T15:56:42;14.70;99.90
13354;DHT22;6746;50.892;4.064;2023-05-09T15:59:10;14.70;99.90
13354;DHT22;6746;50.892;4.064;2023-05-09T16:01:39;14.60;99.90
13354;DHT22;6746;50.892;4.064;2023-05-09T16:04:08;14.70;99.90
13354;DHT22;6746;50.892;4.064;2023-05-09T16:06:37;14.70;99.90
13354;DHT22;6746;50.892;4.064;2023-05-09T16:09:06;14.70;99.90
13354;DHT22;6746;50.892;4.064;2023-05-09T16:11:34;14.70;99.90
13354;DHT22;6746;50.892;4.064;2023-05-09T16:14:03;14.80;99.90
13354;DHT22;6746;50.892;4.064;2023-05-09T16:16:40;14.80;99.90
13354;DHT22;6746;50.892;4.064;2023-05-09T16:19:08;14.80;99.90
13354;DHT22;6746;50.892;4.064;2023-05-09T16:21:37;14.90;99.90
13354;DHT22;6746;50.892;4.064;2023-05-09T16:24:06;14.90;99.90
13354;DHT22;6746;50.892;4.064;2023-05-09T16:26:37;14.90;99.90
13354;DHT22;6746;50.892;4.064;2023-05-09T16:29:06;14.90;99.90
13354;DHT22;6746;50.892;4.064;2023-05-09T16:31:38;14.90;99.90
13354;DHT22;6746;50.892;4.064;2023-05-09T16:34:06;14.90;99.90
13354;DHT22;6746;50.892;4.064;2023-05-09T16:36:35;15.00;99.90
13354;DHT22;6746;50.892;4.064;2023-05-09T16:39:04;15.00;99.90
13354;DHT22;6746;50.892;4.064;2023-05-09T16:41:33;15.00;99.90